Terminal Aerodrome Forecast
Issued by NWS

Home | Current Version | Previous Version | Text Only | Print | Product List | Glossary On
Versions: 1 2 3 4 5 6 7 8 9 10 11 12 13 14 15 16 17 18 19 20
975
FTUS41 KCAR 160521
TAFFVE
TAF
KFVE 160521Z 1606/1706 17004KT P6SM BKN250
     FM161300 19007KT P6SM BKN050
     FM161500 21009KT P6SM BKN010
     FM162200 25009KT P6SM BKN025
     FM170000 26009KT P6SM BKN050=

USA.gov is the U.S. government's official web portal to all federal, state and local government web resources and services.